Time;durP1;ratioP1;P1;durP2;ratioP2;P2;SDS_P1;SDS_P2;PMS_P1;PMS_P2;Temp;Humidity;BMP_temperature;BMP_pressure;BME280_temperature;BME280_humidity;BME280_pressure;Samples;Min_cycle;Max_cycle;Signal;HPM_P1;HPM_P2
2022/04/09 00:01:17;;;;;;;2.57;2.37;;;;;;;-0.45;100.00;94263.66;5102707;28;20429;-78
2022/04/09 00:03:43;;;;;;;2.83;2.63;;;;;;;-0.64;100.00;94256.97;5085323;28;20460;-77
2022/04/09 00:06:10;;;;;;;1.70;1.60;;;;;;;-0.48;100.00;94278.00;5082416;28;20527;-77
2022/04/09 00:08:37;;;;;;;2.27;2.07;;;;;;;-0.37;100.00;94301.81;5091291;28;20424;-77
2022/04/09 00:11:04;;;;;;;1.77;1.67;;;;;;;-0.62;100.00;94283.34;5094900;28;20435;-77
2022/04/09 00:13:30;;;;;;;2.00;1.80;;;;;;;-0.41;100.00;94321.66;5100409;28;20832;-77
2022/04/09 00:15:57;;;;;;;2.00;1.90;;;;;;;-0.36;100.00;94335.25;5097142;28;20510;-77
2022/04/09 00:18:24;;;;;;;2.20;2.00;;;;;;;-0.63;100.00;94312.97;5076381;28;20483;-77
2022/04/09 00:20:51;;;;;;;1.53;1.43;;;;;;;-0.74;100.00;94290.97;5077389;28;20502;-77
2022/04/09 00:23:18;;;;;;;1.93;1.83;;;;;;;-0.46;100.00;94338.16;5093567;28;20498;-77
2022/04/09 00:25:46;;;;;;;1.77;1.67;;;;;;;-0.54;100.00;94307.00;5094498;28;20811;-77
2022/04/09 00:28:12;;;;;;;1.77;1.67;;;;;;;-0.57;100.00;94325.78;5077159;28;20437;-77
2022/04/09 00:30:39;;;;;;;1.60;1.50;;;;;;;-0.62;100.00;94314.50;5075974;28;20523;-77
2022/04/09 00:33:06;;;;;;;1.53;1.43;;;;;;;-0.41;100.00;94368.38;5094083;28;20436;-77
2022/04/09 00:35:33;;;;;;;1.43;1.20;;;;;;;-0.73;100.00;94317.69;5093276;28;20436;-77
2022/04/09 00:37:59;;;;;;;1.50;1.40;;;;;;;-0.67;100.00;94334.59;5093553;28;20422;-77
2022/04/09 00:40:26;;;;;;;1.47;1.30;;;;;;;-0.41;100.00;94397.69;5092650;28;20540;-78
2022/04/09 00:42:53;;;;;;;1.43;1.33;;;;;;;-0.85;100.00;94327.88;5092985;28;20440;-78
2022/04/09 00:45:20;;;;;;;1.17;1.10;;;;;;;-0.32;100.00;94405.50;5076471;28;20447;-78
2022/04/09 00:47:47;;;;;;;1.23;1.20;;;;;;;-0.56;100.00;94371.41;5093725;28;20455;-78
2022/04/09 00:50:14;;;;;;;1.70;1.60;;;;;;;-0.41;100.00;94426.22;5094432;28;20427;-77
2022/04/09 00:52:47;;;;;;;1.40;1.30;;;;;;;-0.38;100.00;94428.25;5093508;28;20484;-78
2022/04/09 00:55:16;;;;;;;1.90;1.77;;;;;;;-0.49;100.00;94419.22;5073330;28;20468;-78
2022/04/09 00:57:46;;;;;;;1.27;1.17;;;;;;;-0.67;100.00;94379.50;5085304;28;20460;-78
2022/04/09 01:00:14;;;;;;;1.37;1.27;;;;;;;-0.50;100.00;94422.88;5093894;28;20441;-78
2022/04/09 01:02:43;;;;;;;1.60;1.50;;;;;;;-0.82;100.00;94382.50;5092619;28;20987;-78
2022/04/09 01:05:12;;;;;;;2.17;1.47;;;;;;;-0.58;100.00;94434.00;5092248;28;20536;-78
2022/04/09 01:07:39;;;;;;;1.43;1.33;;;;;;;-0.37;100.00;94458.31;5092849;28;21037;-78
2022/04/09 01:10:10;;;;;;;1.30;1.20;;;;;;;-0.65;100.00;94428.50;5092996;28;20433;-79
2022/04/09 01:12:37;;;;;;;1.57;1.47;;;;;;;-0.47;100.00;94461.19;5092822;28;20456;-79
2022/04/09 01:15:06;;;;;;;1.77;1.67;;;;;;;-0.30;100.00;94479.38;5104574;28;20439;-80
2022/04/09 01:17:37;;;;;;;1.60;1.50;;;;;;;-0.75;100.00;94424.34;5075574;28;20491;-80
2022/04/09 01:20:21;;;;;;;1.63;1.50;;;;;;;-0.55;100.00;94458.56;5095045;28;20410;-79
2022/04/09 01:22:50;;;;;;;1.73;1.63;;;;;;;-0.53;100.00;94453.88;5092714;28;20444;-80
2022/04/09 01:25:18;;;;;;;2.13;2.03;;;;;;;-0.65;100.00;94482.97;5076478;28;20526;-80
2022/04/09 01:27:47;;;;;;;1.80;1.70;;;;;;;-0.63;100.00;94489.38;5079355;28;20441;-80
2022/04/09 01:30:14;;;;;;;2.30;2.03;;;;;;;-0.30;100.00;94540.94;5092548;28;20937;-79
2022/04/09 01:32:42;;;;;;;2.50;2.30;;;;;;;-0.09;100.00;94565.28;5076430;28;20536;-79
2022/04/09 01:35:09;;;;;;;2.20;2.10;;;;;;;-0.20;100.00;94565.84;5092728;28;20871;-79
2022/04/09 01:37:36;;;;;;;3.10;2.80;;;;;;;-0.22;100.00;94575.78;5071979;28;20492;-79
2022/04/09 01:40:04;;;;;;;2.80;2.20;;;;;;;-0.04;100.00;94598.13;5086722;28;20460;-79
2022/04/09 01:42:31;;;;;;;2.50;2.30;;;;;;;-0.28;100.00;94571.78;5073976;28;20433;-79
2022/04/09 01:44:59;;;;;;;5.10;2.43;;;;;;;-0.54;100.00;94553.50;5096146;28;20961;-79
2022/04/09 01:47:26;;;;;;;2.67;2.47;;;;;;;-0.32;100.00;94569.03;5096132;28;20456;-79
2022/04/09 01:49:53;;;;;;;2.33;2.07;;;;;;;-0.27;100.00;94592.25;5095879;28;20485;-79
2022/04/09 01:52:21;;;;;;;3.10;2.43;;;;;;;-1.04;100.00;94484.50;5078927;28;20466;-79
2022/04/09 01:54:48;;;;;;;3.47;2.97;;;;;;;-0.49;100.00;94571.56;5095935;28;20606;-79
2022/04/09 01:57:15;;;;;;;2.77;2.60;;;;;;;-1.12;100.00;94492.22;5095053;28;20475;-79
2022/04/09 01:59:46;;;;;;;3.17;2.87;;;;;;;-0.59;100.00;94564.78;5078430;28;20440;-78
2022/04/09 02:02:13;;;;;;;2.93;2.73;;;;;;;-1.44;100.00;94439.63;5074561;28;20434;-78
2022/04/09 02:04:40;;;;;;;2.33;2.13;;;;;;;-0.66;100.00;94552.25;5078188;28;20489;-78
2022/04/09 02:07:07;;;;;;;2.27;2.10;;;;;;;-0.12;100.00;94630.06;5078020;28;20443;-78
2022/04/09 02:09:33;;;;;;;2.30;2.20;;;;;;;-0.65;100.00;94590.13;5078261;28;20846;-78
2022/04/09 02:12:00;;;;;;;2.63;2.43;;;;;;;-0.46;100.00;94623.63;5074453;28;20445;-78
2022/04/09 02:14:27;;;;;;;2.37;2.20;;;;;;;-0.29;100.00;94664.47;5104664;28;20413;-78
2022/04/09 02:16:54;;;;;;;3.37;3.07;;;;;;;-0.15;100.00;94693.72;5094823;28;20825;-78
2022/04/09 02:19:21;;;;;;;3.17;2.97;;;;;;;-0.18;100.00;94685.75;5094864;28;20777;-78
2022/04/09 02:21:48;;;;;;;2.73;2.53;;;;;;;-0.18;100.00;94699.50;5095025;28;20493;-78
2022/04/09 02:24:15;;;;;;;2.73;2.50;;;;;;;-0.78;100.00;94595.38;5094412;28;20440;-78
2022/04/09 02:26:42;;;;;;;2.73;2.53;;;;;;;-0.17;100.00;94698.44;5077435;28;20551;-78
2022/04/09 02:29:10;;;;;;;3.13;2.87;;;;;;;-0.62;100.00;94636.22;5094569;28;20501;-78
2022/04/09 02:31:37;;;;;;;3.93;3.63;;;;;;;-0.40;100.00;94695.13;5077706;28;20862;-78
2022/04/09 02:34:05;;;;;;;2.67;2.47;;;;;;;-0.29;100.00;94729.38;5094309;28;20436;-78
2022/04/09 02:36:34;;;;;;;3.43;3.13;;;;;;;-0.53;100.00;94703.75;5073761;28;20472;-77
2022/04/09 02:39:01;;;;;;;3.80;3.50;;;;;;;-0.02;100.00;94773.38;5073879;28;20494;-77
2022/04/09 02:41:29;;;;;;;4.13;3.73;;;;;;;-0.20;100.00;94791.75;5086486;28;20444;-78
2022/04/09 02:43:57;;;;;;;3.97;3.67;;;;;;;-0.09;100.00;94804.22;5094111;28;20444;-77
2022/04/09 02:46:24;;;;;;;3.90;3.60;;;;;;;-0.51;100.00;94787.28;5094409;28;20514;-77
2022/04/09 02:48:54;;;;;;;5.50;4.80;;;;;;;-0.23;100.00;94828.72;5077966;28;20436;-77
2022/04/09 02:51:20;;;;;;;4.13;3.70;;;;;;;-0.21;100.00;94840.31;5077430;28;20483;-77
2022/04/09 02:53:47;;;;;;;5.00;4.60;;;;;;;-0.31;100.00;94827.56;5093556;28;20821;-77
2022/04/09 02:56:15;;;;;;;4.00;3.70;;;;;;;-0.50;100.00;94812.16;5094558;28;20463;-77
2022/04/09 02:58:41;;;;;;;7.17;4.80;;;;;;;-0.22;100.00;94854.38;5094082;28;20855;-78
2022/04/09 03:01:08;;;;;;;5.17;4.77;;;;;;;-0.25;100.00;94851.59;5093785;28;20453;-77
2022/04/09 03:03:35;;;;;;;4.20;3.80;;;;;;;-0.44;100.00;94847.31;5094433;28;20440;-77
2022/04/09 03:06:02;;;;;;;4.20;3.80;;;;;;;-0.27;100.00;94872.66;5094221;28;20468;-77
2022/04/09 03:08:29;;;;;;;4.60;4.20;;;;;;;-0.30;100.00;94881.03;5094860;28;20519;-77
2022/04/09 03:10:55;;;;;;;5.53;4.67;;;;;;;-0.40;100.00;94868.25;5077896;28;20472;-77
2022/04/09 03:13:22;;;;;;;4.90;4.47;;;;;;;-0.25;100.00;94880.94;5083625;28;20442;-77
2022/04/09 03:15:49;;;;;;;5.33;4.07;;;;;;;-0.28;100.00;94891.88;5101324;28;20425;-77
2022/04/09 03:18:17;;;;;;;4.70;4.10;;;;;;;-0.15;100.00;94914.44;5094847;28;20475;-77
2022/04/09 03:20:44;;;;;;;6.83;6.10;;;;;;;-0.04;100.00;94946.16;5078352;28;21017;-77
2022/04/09 03:23:13;;;;;;;7.67;6.87;;;;;;;-0.25;100.00;94919.13;5095163;28;20429;-77
2022/04/09 03:25:48;;;;;;;5.50;4.90;;;;;;;-0.23;100.00;94932.56;5094464;28;20982;-77
2022/04/09 03:28:18;;;;;;;4.83;4.43;;;;;;;-0.07;100.00;94960.50;5095045;28;20450;-77
2022/04/09 03:30:45;;;;;;;5.17;4.60;;;;;;;-0.40;100.00;94907.97;5097367;28;20972;-77
2022/04/09 03:33:14;;;;;;;6.50;5.90;;;;;;;-0.04;100.00;94972.91;5080933;28;20448;-77
2022/04/09 03:35:41;;;;;;;7.97;6.50;;;;;;;-0.34;100.00;94919.78;5096865;28;20452;-77
2022/04/09 03:38:12;;;;;;;7.40;6.70;;;;;;;0.05;100.00;95004.16;5096280;28;20481;-77
2022/04/09 03:40:49;;;;;;;6.10;5.20;;;;;;;-0.08;100.00;94981.59;5083590;28;20447;-77
2022/04/09 03:43:20;;;;;;;6.60;5.90;;;;;;;0.08;100.00;94997.63;5096191;28;20447;-77
2022/04/09 03:45:47;;;;;;;6.83;6.03;;;;;;;0.08;100.00;95008.00;5096217;28;20438;-77
2022/04/09 03:48:14;;;;;;;5.83;5.10;;;;;;;0.06;100.00;95016.09;5079082;28;20815;-77
2022/04/09 03:50:43;;;;;;;5.90;5.40;;;;;;;0.09;100.00;95038.13;5094925;28;20436;-77
2022/04/09 03:53:19;;;;;;;4.47;3.80;;;;;;;0.12;100.00;95021.94;5078355;28;20444;-77
2022/04/09 03:55:49;;;;;;;6.60;5.47;;;;;;;0.15;100.00;95044.78;5094813;28;20440;-77
2022/04/09 03:58:16;;;;;;;7.37;5.63;;;;;;;0.25;100.00;95049.72;5093742;28;20459;-77
2022/04/09 04:00:43;;;;;;;6.80;5.67;;;;;;;-0.08;100.00;95033.53;5078077;28;20916;-77
2022/04/09 04:03:11;;;;;;;8.07;6.67;;;;;;;0.07;100.00;95048.03;5073724;28;20445;-77
2022/04/09 04:05:39;;;;;;;7.37;6.10;;;;;;;0.17;100.00;95059.00;5073609;28;20949;-77
2022/04/09 04:08:07;;;;;;;9.67;6.83;;;;;;;0.38;100.00;95087.94;5092474;28;20869;-77
2022/04/09 04:10:36;;;;;;;9.20;7.40;;;;;;;0.17;100.00;95047.84;5093682;28;20452;-77
2022/04/09 04:13:18;;;;;;;8.17;6.53;;;;;;;0.05;100.00;95050.94;5099097;28;20571;-77
2022/04/09 04:15:45;;;;;;;8.27;7.30;;;;;;;0.29;100.00;95087.09;5099118;28;20437;-77
2022/04/09 04:18:12;;;;;;;9.00;7.97;;;;;;;0.23;100.00;95094.22;5094559;28;20463;-77
2022/04/09 04:20:42;;;;;;;10.60;8.80;;;;;;;0.41;100.00;95128.97;5093116;28;20456;-77
2022/04/09 04:23:09;;;;;;;10.57;6.83;;;;;;;0.37;100.00;95111.63;5093303;28;20468;-77
2022/04/09 04:25:36;;;;;;;11.83;7.83;;;;;;;0.55;100.00;95134.13;5093139;28;20432;-77
2022/04/09 04:28:05;;;;;;;9.03;7.80;;;;;;;0.28;100.00;95111.53;5076711;28;20955;-77
2022/04/09 04:30:32;;;;;;;9.47;7.70;;;;;;;0.33;100.00;95102.88;5076560;28;20436;-77
2022/04/09 04:32:59;;;;;;;11.73;8.87;;;;;;;0.29;100.00;95137.25;5076655;28;20472;-77
2022/04/09 04:35:38;;;;;;;11.30;9.93;;;;;;;0.18;100.00;95140.31;5092422;28;20448;-77
2022/04/09 04:38:05;;;;;;;10.20;9.20;;;;;;;0.37;100.00;95153.97;5092441;28;20460;-77
2022/04/09 04:40:34;;;;;;;8.83;7.93;;;;;;;0.27;100.00;95143.78;5078695;28;20535;-77
2022/04/09 04:43:05;;;;;;;10.93;7.97;;;;;;;0.33;100.00;95168.63;5095123;28;20836;-77
2022/04/09 04:45:32;;;;;;;11.17;9.53;;;;;;;0.44;100.00;95201.16;5077881;28;20448;-76
2022/04/09 04:48:01;;;;;;;120.00;67.80;;;;;;;0.29;100.00;95201.44;5094060;28;20432;-77
2022/04/09 04:50:32;;;;;;;99.90;55.80;;;;;;;0.37;100.00;95221.56;5078690;28;20947;-77
2022/04/09 04:53:00;;;;;;;83.40;49.27;;;;;;;0.40;100.00;95230.59;5094730;28;20995;-76
2022/04/09 04:55:35;;;;;;;15.73;11.50;;;;;;;0.11;100.00;95190.06;5095249;28;20437;-77
2022/04/09 04:58:02;;;;;;;11.77;8.30;;;;;;;-0.17;100.00;95191.84;5095063;28;20459;-76
2022/04/09 05:00:34;;;;;;;11.20;9.17;;;;;;;-0.05;100.00;95205.16;5079260;28;20422;-77
2022/04/09 05:03:06;;;;;;;14.07;9.70;;;;;;;0.01;100.00;95234.44;5094401;28;20526;-76
2022/04/09 05:05:39;;;;;;;14.80;10.63;;;;;;;0.29;100.00;95272.38;5094003;28;20480;-77
2022/04/09 05:08:06;;;;;;;9.83;8.23;;;;;;;0.37;100.00;95276.13;5094182;28;20519;-77
2022/04/09 05:10:33;;;;;;;10.70;8.63;;;;;;;0.20;100.00;95273.31;5094078;28;20428;-76
2022/04/09 05:13:02;;;;;;;9.70;7.73;;;;;;;0.20;100.00;95275.94;5080017;28;20806;-76
2022/04/09 05:15:32;;;;;;;9.57;8.30;;;;;;;-0.15;100.00;95236.47;5085379;28;20442;-76
2022/04/09 05:18:02;;;;;;;11.00;9.40;;;;;;;0.24;100.00;95275.06;5076113;28;20907;-76
2022/04/09 05:20:31;;;;;;;10.67;8.10;;;;;;;0.18;100.00;95265.81;5072979;28;20442;-76
2022/04/09 05:23:03;;;;;;;10.63;8.80;;;;;;;0.27;100.00;95276.34;5078639;28;20499;-76
2022/04/09 05:25:31;;;;;;;10.90;8.40;;;;;;;0.25;100.00;95275.84;5071118;28;20454;-76
2022/04/09 05:28:05;;;;;;;9.43;8.23;;;;;;;0.15;100.00;95271.59;5090434;28;20447;-76
2022/04/09 05:30:36;;;;;;;18.33;8.23;;;;;;;0.21;100.00;95272.28;5074536;28;20436;-76
2022/04/09 05:33:04;;;;;;;8.83;7.93;;;;;;;0.25;100.00;95300.00;5070974;28;20462;-76
2022/04/09 05:35:32;;;;;;;10.20;8.00;;;;;;;-0.25;100.00;95231.47;5073502;28;20436;-76
2022/04/09 05:37:58;;;;;;;17.10;13.87;;;;;;;0.27;100.00;95292.69;5090546;28;20478;-76
2022/04/09 05:40:30;;;;;;;13.03;11.73;;;;;;;0.37;100.00;95299.53;5091521;28;20473;-76
2022/04/09 05:43:04;;;;;;;10.87;8.03;;;;;;;0.15;100.00;95315.00;5074922;28;20448;-75
2022/04/09 05:45:31;;;;;;;12.40;11.13;;;;;;;0.37;100.00;95335.16;5091248;28;20447;-75
2022/04/09 05:47:58;;;;;;;14.47;13.03;;;;;;;0.59;100.00;95349.09;5091330;28;20976;-75
2022/04/09 05:50:36;;;;;;;13.10;11.67;;;;;;;0.55;100.00;95331.75;5063124;28;20890;-75
2022/04/09 05:53:04;;;;;;;17.53;13.13;;;;;;;0.53;100.00;95339.81;5091289;28;20537;-75
2022/04/09 05:55:30;;;;;;;18.63;16.90;;;;;;;0.76;100.00;95364.13;5074340;28;20471;-75
2022/04/09 05:57:57;;;;;;;18.77;17.07;;;;;;;0.89;100.00;95386.00;5092038;28;20464;-75
2022/04/09 06:00:26;;;;;;;19.80;17.97;;;;;;;0.96;100.00;95367.44;5093293;28;20421;-75
2022/04/09 06:03:05;;;;;;;11.97;10.77;;;;;;;0.94;100.00;95366.97;5091843;28;20449;-75
2022/04/09 06:05:36;;;;;;;19.27;17.40;;;;;;;0.98;100.00;95402.50;5090630;28;20446;-75
2022/04/09 06:08:09;;;;;;;12.50;11.50;;;;;;;0.83;100.00;95398.34;5060463;28;20467;-75
2022/04/09 06:10:37;;;;;;;9.90;8.60;;;;;;;0.62;100.00;95394.53;5089425;28;20438;-75
2022/04/09 06:13:03;;;;;;;11.77;10.57;;;;;;;0.40;100.00;95365.78;5089827;28;20444;-75
2022/04/09 06:15:30;;;;;;;24.53;15.90;;;;;;;0.88;100.00;95424.28;5090982;28;20501;-76
2022/04/09 06:18:06;;;;;;;13.63;11.43;;;;;;;0.77;100.00;95407.28;5091817;28;20964;-76
2022/04/09 06:20:34;;;;;;;10.90;8.30;;;;;;;0.94;100.00;95437.97;5074474;28;20545;-76
2022/04/09 06:23:04;;;;;;;16.87;9.37;;;;;;;0.80;100.00;95421.53;5090866;28;20530;-76
2022/04/09 06:25:32;;;;;;;9.77;8.70;;;;;;;1.06;100.00;95453.09;5073454;28;20506;-76
2022/04/09 06:28:00;;;;;;;14.57;11.33;;;;;;;0.76;100.00;95408.34;5075588;28;21020;-76
2022/04/09 06:30:28;;;;;;;18.40;11.43;;;;;;;0.74;100.00;95417.50;5078902;28;20438;-76
2022/04/09 06:33:02;;;;;;;12.77;8.27;;;;;;;0.76;100.00;95426.56;5096179;28;20474;-76
2022/04/09 06:35:31;;;;;;;13.10;8.23;;;;;;;0.73;100.00;95431.56;5081224;28;20443;-76
2022/04/09 06:37:58;;;;;;;8.23;7.33;;;;;;;0.62;100.00;95425.75;5097425;28;20490;-76
2022/04/09 06:40:28;;;;;;;14.70;10.10;;;;;;;0.70;100.00;95440.72;5099946;28;20540;-76
2022/04/09 06:42:56;;;;;;;11.03;7.50;;;;;;;0.79;100.00;95485.03;5097560;28;20432;-76
2022/04/09 06:45:41;;;;;;;11.20;9.87;;;;;;;0.76;100.00;95467.41;5086130;28;20412;-75
2022/04/09 06:48:38;;;;;;;10.50;8.40;;;;;;;0.73;100.00;95462.78;5073332;28;20969;-75
2022/04/09 06:51:23;;;;;;;8.67;7.87;;;;;;;0.86;100.00;95472.44;5097246;28;20408;-76
2022/04/09 06:53:55;;;;;;;6.70;6.00;;;;;;;0.74;100.00;95459.88;5094586;28;20444;-76
2022/04/09 06:56:21;;;;;;;12.00;9.63;;;;;;;0.74;100.00;95466.91;5077768;28;20464;-76
2022/04/09 06:58:49;;;;;;;10.47;9.37;;;;;;;0.94;100.00;95495.22;5077704;28;20455;-76
2022/04/09 07:01:16;;;;;;;17.70;9.37;;;;;;;0.68;100.00;95466.25;5093813;28;20429;-76
2022/04/09 07:03:44;;;;;;;6.53;5.83;;;;;;;0.83;100.00;95484.19;5093794;28;20472;-76
2022/04/09 07:06:11;;;;;;;9.53;7.37;;;;;;;0.76;100.00;95457.00;5093321;28;20560;-76
2022/04/09 07:08:39;;;;;;;13.93;8.03;;;;;;;0.73;100.00;95465.38;5093674;28;20433;-76
2022/04/09 07:11:06;;;;;;;11.30;8.50;;;;;;;0.65;100.00;95456.38;5093167;28;20440;-76
2022/04/09 07:13:33;;;;;;;12.27;8.00;;;;;;;1.00;100.00;95514.88;5100099;28;20444;-76
2022/04/09 07:15:59;;;;;;;9.47;8.23;;;;;;;0.98;100.00;95509.19;5096463;28;20822;-76
2022/04/09 07:18:27;;;;;;;9.57;8.63;;;;;;;0.96;100.00;95498.31;5093911;28;20463;-75
2022/04/09 07:20:53;;;;;;;10.43;8.50;;;;;;;0.78;100.00;95476.47;5075751;28;20432;-75
2022/04/09 07:23:20;;;;;;;9.53;7.07;;;;;;;1.13;100.00;95518.59;5072196;28;20444;-75
2022/04/09 07:25:47;;;;;;;11.63;8.73;;;;;;;0.91;100.00;95500.97;5071982;28;20440;-74
2022/04/09 07:28:14;;;;;;;9.57;8.67;;;;;;;1.16;100.00;95525.81;5079658;28;20457;-75
2022/04/09 07:30:42;;;;;;;7.47;6.30;;;;;;;1.23;100.00;95549.66;5089772;28;20440;-75
2022/04/09 07:33:08;;;;;;;8.20;7.50;;;;;;;1.26;100.00;95545.72;5092061;28;20502;-75
2022/04/09 07:35:35;;;;;;;16.50;8.40;;;;;;;0.92;100.00;95512.16;5093111;28;20500;-75
2022/04/09 07:38:03;;;;;;;9.00;7.40;;;;;;;1.22;100.00;95553.31;5091693;28;20500;-75
2022/04/09 07:40:30;;;;;;;12.77;8.47;;;;;;;0.98;100.00;95514.41;5091384;28;20480;-75
2022/04/09 07:42:59;;;;;;;9.37;6.67;;;;;;;0.86;100.00;95501.06;5091840;28;20538;-75
2022/04/09 07:45:26;;;;;;;5.70;4.97;;;;;;;1.21;100.00;95557.00;5091766;28;20947;-75
2022/04/09 07:47:55;;;;;;;9.90;8.90;;;;;;;1.04;100.00;95536.66;5091638;28;20459;-75
2022/04/09 07:50:23;;;;;;;17.70;9.33;;;;;;;1.37;100.00;95578.34;5091586;28;20531;-75
2022/04/09 07:52:50;;;;;;;4.27;3.63;;;;;;;1.14;100.00;95553.97;5092858;28;20460;-75
2022/04/09 07:55:17;;;;;;;9.40;6.40;;;;;;;1.25;100.00;95567.59;5078049;28;20469;-75
2022/04/09 07:57:45;;;;;;;11.80;8.03;;;;;;;1.31;100.00;95588.03;5091367;28;20456;-75
2022/04/09 08:00:13;;;;;;;5.60;5.00;;;;;;;1.09;100.00;95559.25;5091450;28;20447;-75
2022/04/09 08:02:40;;;;;;;9.33;7.60;;;;;;;1.34;100.00;95591.94;5091245;28;20973;-75
2022/04/09 08:05:10;;;;;;;11.83;7.50;;;;;;;1.11;100.00;95573.53;5091396;28;20526;-75
2022/04/09 08:07:38;;;;;;;8.97;7.17;;;;;;;1.16;100.00;95563.03;5092833;28;20448;-75
2022/04/09 08:10:06;;;;;;;12.00;7.50;;;;;;;1.29;100.00;95566.72;5091182;28;20511;-75
2022/04/09 08:12:33;;;;;;;10.37;8.03;;;;;;;1.43;100.00;95564.94;5091020;28;20471;-75
2022/04/09 08:15:00;;;;;;;8.00;7.00;;;;;;;1.65;100.00;95592.19;5102367;28;20472;-75
2022/04/09 08:17:26;;;;;;;9.17;7.50;;;;;;;1.44;100.00;95582.09;5092160;28;20444;-75
2022/04/09 08:19:53;;;;;;;8.87;7.20;;;;;;;1.61;100.00;95612.06;5092308;28;20921;-75
2022/04/09 08:22:21;;;;;;;7.77;7.07;;;;;;;1.48;100.00;95603.94;5072311;28;20477;-74
2022/04/09 08:24:47;;;;;;;7.30;6.10;;;;;;;1.21;100.00;95569.22;5074190;28;20488;-74
2022/04/09 08:27:14;;;;;;;10.03;9.00;;;;;;;1.31;100.00;95623.72;5074029;28;20854;-74
2022/04/09 08:29:41;;;;;;;9.37;7.87;;;;;;;1.41;100.00;95602.75;5074030;28;20442;-74
2022/04/09 08:32:08;;;;;;;9.47;8.57;;;;;;;1.65;100.00;95633.88;5090848;28;20442;-73
2022/04/09 08:34:35;;;;;;;14.97;9.57;;;;;;;1.69;100.00;95635.59;5090750;28;20863;-74
2022/04/09 08:37:03;;;;;;;13.40;8.77;;;;;;;1.43;100.00;95604.00;5091927;28;20483;-74
2022/04/09 08:39:30;;;;;;;8.33;6.90;;;;;;;1.67;100.00;95631.75;5090755;28;20465;-75
2022/04/09 08:41:58;;;;;;;9.97;7.40;;;;;;;1.71;100.00;95635.31;5090699;28;20861;-74
2022/04/09 08:44:25;;;;;;;11.27;6.97;;;;;;;1.70;100.00;95626.72;5092302;28;20408;-75
2022/04/09 08:46:53;;;;;;;9.80;7.73;;;;;;;1.77;100.00;95627.16;5087908;28;20555;-75
2022/04/09 08:49:23;;;;;;;10.07;5.20;;;;;;;1.80;100.00;95644.03;5078984;28;20440;-75
2022/04/09 08:51:51;;;;;;;8.20;6.50;;;;;;;1.87;100.00;95660.09;5090682;28;20437;-76
2022/04/09 08:54:18;;;;;;;6.90;6.30;;;;;;;1.88;100.00;95655.63;5092197;28;20449;-75
2022/04/09 08:56:45;;;;;;;8.63;6.83;;;;;;;1.88;100.00;95643.38;5077872;28;21044;-76
2022/04/09 08:59:12;;;;;;;9.20;8.30;;;;;;;2.17;100.00;95668.41;5090303;28;20461;-75
2022/04/09 09:01:39;;;;;;;7.60;6.80;;;;;;;2.07;100.00;95677.97;5090208;28;20440;-76
2022/04/09 09:04:06;;;;;;;8.00;5.83;;;;;;;2.37;100.00;95679.25;5092635;28;20472;-76
2022/04/09 09:06:35;;;;;;;6.63;6.00;;;;;;;2.48;100.00;95679.81;5073509;28;20476;-76
2022/04/09 09:09:04;;;;;;;8.40;7.57;;;;;;;2.30;100.00;95650.19;5081141;28;20464;-76
2022/04/09 09:11:48;;;;;;;8.33;7.13;;;;;;;2.53;100.00;95689.38;5101675;28;20958;-75
2022/04/09 09:14:32;;;;;;;10.80;7.20;;;;;;;2.71;100.00;95672.09;5090414;28;20423;-75
2022/04/09 09:17:01;;;;;;;9.63;8.10;;;;;;;2.78;100.00;95659.41;5079893;28;20877;-75
2022/04/09 09:19:47;;;;;;;7.57;6.77;;;;;;;3.07;100.00;95665.06;5082412;28;21041;-74
2022/04/09 09:22:15;;;;;;;9.53;6.37;;;;;;;3.26;100.00;95693.66;5090063;28;20439;-75
2022/04/09 09:24:42;;;;;;;5.33;4.83;;;;;;;2.84;100.00;95684.34;5079282;28;20481;-75
2022/04/09 09:27:10;;;;;;;6.80;5.70;;;;;;;2.70;100.00;95668.72;5090064;28;20542;-75
2022/04/09 09:29:36;;;;;;;4.07;3.63;;;;;;;2.84;100.00;95682.53;5089867;28;20440;-75
2022/04/09 09:32:06;;;;;;;11.07;6.50;;;;;;;3.05;100.00;95693.28;5090246;28;20452;-75
2022/04/09 09:34:35;;;;;;;9.70;6.30;;;;;;;2.82;100.00;95655.94;5089831;28;21062;-75
2022/04/09 09:37:02;;;;;;;5.73;5.10;;;;;;;3.16;100.00;95676.34;5089967;28;20457;-73
2022/04/09 09:39:33;;;;;;;5.47;4.30;;;;;;;3.09;100.00;95677.84;5089749;28;20471;-72
2022/04/09 09:42:04;;;;;;;11.80;6.33;;;;;;;3.37;100.00;95696.81;5073122;28;20968;-72
2022/04/09 09:44:32;;;;;;;9.77;5.50;;;;;;;3.33;100.00;95706.28;5090205;28;21000;-72
2022/04/09 09:47:09;;;;;;;7.83;4.07;;;;;;;3.24;100.00;95711.47;5089874;28;20452;-72
2022/04/09 09:49:57;;;;;;;7.10;4.90;;;;;;;2.82;100.00;95657.78;5072911;28;20470;-72
2022/04/09 09:52:26;;;;;;;16.33;5.43;;;;;;;3.03;100.00;95703.25;5090915;28;20828;-71
2022/04/09 09:54:53;;;;;;;11.10;4.43;;;;;;;2.98;100.00;95685.09;5089581;28;20943;-72
2022/04/09 09:57:21;;;;;;;7.20;5.00;;;;;;;3.07;100.00;95712.09;5072666;28;20457;-73
2022/04/09 09:59:53;;;;;;;7.23;6.43;;;;;;;2.88;100.00;95686.09;5089746;28;20456;-72
2022/04/09 10:02:21;;;;;;;7.13;5.73;;;;;;;2.82;100.00;95697.69;5089506;28;20467;-72
2022/04/09 10:04:50;;;;;;;11.70;4.60;;;;;;;2.85;100.00;95720.59;5093497;28;20433;-72
2022/04/09 10:07:18;;;;;;;8.37;7.40;;;;;;;2.99;100.00;95728.44;5094662;28;20456;-72
2022/04/09 10:09:46;;;;;;;12.80;6.43;;;;;;;3.08;100.00;95708.41;5076655;28;20434;-73
2022/04/09 10:12:20;;;;;;;8.73;4.80;;;;;;;3.04;100.00;95690.97;5093129;28;20453;-72
2022/04/09 10:14:55;;;;;;;6.63;5.10;;;;;;;3.03;100.00;95718.16;5093599;28;20508;-73
2022/04/09 10:17:23;;;;;;;9.00;6.03;;;;;;;3.16;100.00;95725.97;5060169;28;20449;-73
2022/04/09 10:19:57;;;;;;;6.30;5.30;;;;;;;3.10;100.00;95729.75;5093296;28;20462;-73
2022/04/09 10:22:26;;;;;;;11.73;5.00;;;;;;;3.09;100.00;95709.16;5093367;28;20443;-73
2022/04/09 10:24:55;;;;;;;6.90;5.23;;;;;;;3.04;100.00;95690.97;5094514;28;20424;-73
2022/04/09 10:27:43;;;;;;;6.30;3.80;;;;;;;3.09;100.00;95714.41;5078001;28;20803;-73
2022/04/09 10:30:14;;;;;;;6.10;5.47;;;;;;;3.50;100.00;95743.81;5094369;28;20432;-73
2022/04/09 10:32:44;;;;;;;5.17;4.23;;;;;;;3.29;100.00;95721.00;5093224;28;20444;-74
2022/04/09 10:35:32;;;;;;;7.03;5.20;;;;;;;3.34;100.00;95744.41;5093250;28;20506;-73
2022/04/09 10:38:10;;;;;;;9.63;4.37;;;;;;;3.48;100.00;95745.94;5076200;28;20811;-73
2022/04/09 10:41:02;;;;;;;5.10;4.53;;;;;;;3.76;100.00;95751.84;5076286;28;20436;-72
2022/04/09 10:43:39;;;;;;;6.37;4.27;;;;;;;3.78;100.00;95723.56;5092893;28;20437;-72
2022/04/09 10:46:17;;;;;;;10.27;5.37;;;;;;;3.66;100.00;95746.84;5092901;28;20503;-73
2022/04/09 10:48:44;;;;;;;4.73;4.23;;;;;;;3.86;100.00;95745.59;5092908;28;20429;-73
2022/04/09 10:51:15;;;;;;;10.17;4.70;;;;;;;3.92;100.00;95741.03;5076022;28;20857;-71
2022/04/09 10:53:49;;;;;;;8.53;4.63;;;;;;;4.11;100.00;95745.00;5092994;28;20475;-71
2022/04/09 10:56:31;;;;;;;15.30;4.37;;;;;;;3.90;100.00;95753.63;5092884;28;20514;-72
2022/04/09 10:59:13;;;;;;;5.27;4.00;;;;;;;4.15;100.00;95755.66;5093790;28;20551;-73
2022/04/09 11:01:46;;;;;;;4.87;3.90;;;;;;;4.33;100.00;95756.50;5092719;28;20437;-74
2022/04/09 11:04:30;;;;;;;4.27;2.77;;;;;;;4.52;100.00;95754.44;5092502;28;20444;-73
2022/04/09 11:07:13;;;;;;;5.00;3.13;;;;;;;4.31;100.00;95750.81;5091555;28;20457;-73
2022/04/09 11:09:56;;;;;;;5.67;3.70;;;;;;;4.12;100.00;95749.16;5091276;28;20433;-74
2022/04/09 11:12:26;;;;;;;9.43;4.87;;;;;;;4.42;100.00;95752.88;5092247;28;20498;-72
2022/04/09 11:14:55;;;;;;;3.60;2.90;;;;;;;4.47;100.00;95759.81;5092736;28;20420;-74
2022/04/09 11:17:28;;;;;;;4.00;3.30;;;;;;;4.37;100.00;95745.16;5080174;28;20452;-74
2022/04/09 11:19:59;;;;;;;3.20;2.93;;;;;;;4.09;100.00;95728.06;5092223;28;20461;-73
2022/04/09 11:22:55;;;;;;;7.13;3.47;;;;;;;4.62;100.00;95771.75;5092166;28;20479;-73
2022/04/09 11:25:30;;;;;;;2.97;2.77;;;;;;;4.64;100.00;95741.56;5082820;28;20472;-73
2022/04/09 11:28:14;;;;;;;4.43;4.03;;;;;;;4.22;100.00;95727.22;5076223;28;20455;-73
2022/04/09 11:30:54;;;;;;;4.13;3.37;;;;;;;4.14;100.00;95749.66;5092043;28;20569;-73
2022/04/09 11:33:22;;;;;;;4.87;4.47;;;;;;;3.98;100.00;95761.53;5092084;28;20437;-73
2022/04/09 11:35:49;;;;;;;3.10;2.80;;;;;;;3.79;100.00;95726.94;5091996;28;21011;-73
2022/04/09 11:38:16;;;;;;;7.10;4.43;;;;;;;4.11;100.00;95731.16;5091979;28;20432;-74